createdAt,value
2022-10-18T00:00:59.008Z,24.80
2022-10-18T00:06:19.665Z,25.40
2022-10-18T00:08:54.081Z,25.50
2022-10-18T00:11:26.196Z,24.70
2022-10-18T00:13:58.668Z,24.50
2022-10-18T00:16:30.784Z,26.50
2022-10-18T00:19:03.431Z,24.10
2022-10-18T00:21:35.528Z,23.60
2022-10-18T00:24:08.375Z,23.60
2022-10-18T00:26:40.590Z,24.40
2022-10-18T00:29:16.982Z,25.80
2022-10-18T00:31:49.093Z,25.00
2022-10-18T00:34:21.266Z,27.70
2022-10-18T00:36:53.545Z,25.30
2022-10-18T00:39:25.755Z,25.20
2022-10-18T00:41:57.909Z,22.70
2022-10-18T00:45:04.793Z,25.80
2022-10-18T00:47:37.607Z,24.80
2022-10-18T00:50:11.114Z,25.50
2022-10-18T00:52:46.163Z,25.40
2022-10-18T00:55:18.391Z,24.30
2022-10-18T00:57:50.966Z,23.00
2022-10-18T01:02:53.911Z,25.00
2022-10-18T01:05:26.109Z,23.50
2022-10-18T01:08:16.270Z,25.30
2022-10-18T01:10:55.902Z,24.70
2022-10-18T01:13:37.142Z,24.60
2022-10-18T01:16:13.561Z,25.30
2022-10-18T01:18:48.541Z,25.50
2022-10-18T01:21:31.930Z,25.30
2022-10-18T01:24:29.797Z,22.10
2022-10-18T01:27:29.233Z,25.50
2022-10-18T01:30:32.239Z,25.20
2022-10-18T01:33:08.785Z,24.80
2022-10-18T01:35:44.433Z,24.60
2022-10-18T01:38:18.233Z,24.30
2022-10-18T01:40:51.395Z,23.90
2022-10-18T01:43:24.683Z,24.30
2022-10-18T01:45:58.082Z,25.50
2022-10-18T01:48:30.516Z,23.50
2022-10-18T01:51:02.723Z,23.60
2022-10-18T01:53:36.239Z,26.10
2022-10-18T01:56:26.833Z,24.90
2022-10-18T01:59:09.199Z,23.70
2022-10-18T02:01:49.662Z,24.70
2022-10-18T02:04:30.027Z,24.30
2022-10-18T02:07:08.037Z,24.90
2022-10-18T02:09:46.380Z,23.20
2022-10-18T02:12:19.321Z,25.70
2022-10-18T02:14:52.693Z,23.40
2022-10-18T02:17:26.460Z,23.90
2022-10-18T02:19:59.931Z,23.40
2022-10-18T02:22:34.306Z,24.10
2022-10-18T02:25:10.446Z,22.40
2022-10-18T02:27:42.952Z,23.00
2022-10-18T02:32:51.145Z,20.70
2022-10-18T02:35:26.320Z,23.00
2022-10-18T02:38:00.093Z,22.90
2022-10-18T02:40:32.466Z,22.60
2022-10-18T02:43:05.292Z,23.50
2022-10-18T02:45:38.126Z,21.20
2022-10-18T02:48:10.476Z,22.90
2022-10-18T02:50:42.686Z,22.70
2022-10-18T02:53:14.927Z,21.90
2022-10-18T02:55:47.225Z,22.40
2022-10-18T02:58:19.288Z,21.20
2022-10-18T03:00:53.663Z,20.80
2022-10-18T03:03:25.828Z,22.40
2022-10-18T03:05:57.959Z,22.50
2022-10-18T03:08:30.130Z,21.30
2022-10-18T03:11:02.301Z,22.20
2022-10-18T03:13:35.106Z,22.90
2022-10-18T03:16:09.310Z,21.40
2022-10-18T03:18:41.469Z,21.00
2022-10-18T03:21:13.695Z,22.90
2022-10-18T03:23:45.830Z,21.80
2022-10-18T03:26:17.984Z,20.70
2022-10-18T03:28:50.214Z,20.90
2022-10-18T03:31:22.457Z,23.70
2022-10-18T03:33:54.607Z,24.60
2022-10-18T03:36:26.721Z,24.40
2022-10-18T03:38:58.782Z,24.20
2022-10-18T03:41:31.230Z,24.10
2022-10-18T03:44:03.476Z,23.90
2022-10-18T03:46:35.531Z,23.90
2022-10-18T03:49:07.612Z,24.40
2022-10-18T03:51:39.718Z,22.50
2022-10-18T03:54:11.902Z,23.60
2022-10-18T03:56:44.034Z,24.00
2022-10-18T03:59:17.171Z,23.30
2022-10-18T04:01:49.366Z,23.80
2022-10-18T04:04:21.581Z,24.40
2022-10-18T04:06:56.272Z,22.70
2022-10-18T04:09:28.448Z,22.60
2022-10-18T04:12:00.634Z,23.10
2022-10-18T04:14:32.905Z,22.70
2022-10-18T04:17:05.133Z,24.80
2022-10-18T04:19:37.396Z,24.70
2022-10-18T04:22:09.513Z,24.80
2022-10-18T04:24:41.901Z,24.20
2022-10-18T04:27:14.042Z,24.30
2022-10-18T04:29:46.278Z,25.70
2022-10-18T04:32:18.526Z,24.50
2022-10-18T04:34:50.733Z,25.20
2022-10-18T04:37:22.961Z,24.90
2022-10-18T04:39:55.951Z,26.50
2022-10-18T04:42:28.382Z,24.50
2022-10-18T04:45:00.607Z,25.10
2022-10-18T04:47:33.184Z,24.70
2022-10-18T04:50:06.269Z,24.20
2022-10-18T04:52:38.639Z,25.40
2022-10-18T04:55:11.429Z,26.20
2022-10-18T04:57:43.643Z,25.70
2022-10-18T05:00:17.212Z,26.20
2022-10-18T05:02:49.374Z,25.30
2022-10-18T05:05:21.549Z,24.80
2022-10-18T05:07:53.671Z,26.10
2022-10-18T05:10:25.794Z,25.20
2022-10-18T05:12:57.994Z,25.10
2022-10-18T05:15:30.466Z,25.80
2022-10-18T05:18:02.765Z,26.50
2022-10-18T05:20:34.939Z,24.60
2022-10-18T05:23:11.055Z,24.30
2022-10-18T05:25:45.796Z,24.40
2022-10-18T05:28:47.934Z,22.70
2022-10-18T05:31:11.572Z,24.30
2022-10-18T05:33:43.793Z,24.60
2022-10-18T05:36:16.077Z,23.40
2022-10-18T05:38:48.625Z,22.60
2022-10-18T05:41:20.786Z,31.10
2022-10-18T05:43:53.001Z,22.60
2022-10-18T05:46:25.344Z,24.30
2022-10-18T05:48:57.647Z,22.60
2022-10-18T05:51:29.861Z,23.40
2022-10-18T05:54:02.074Z,23.50
2022-10-18T05:56:34.368Z,23.10
2022-10-18T05:59:10.635Z,23.80
2022-10-18T06:01:44.053Z,24.90
2022-10-18T06:04:17.981Z,23.30
2022-10-18T06:06:50.344Z,24.80
2022-10-18T06:09:22.581Z,24.20
2022-10-18T06:11:55.648Z,24.50
2022-10-18T06:14:29.358Z,24.30
2022-10-18T06:17:01.642Z,23.60
2022-10-18T06:19:34.158Z,24.90
2022-10-18T06:22:06.385Z,24.80
2022-10-18T06:24:38.543Z,24.60
2022-10-18T06:27:10.596Z,25.90
2022-10-18T06:29:42.968Z,26.10
2022-10-18T06:32:15.196Z,25.60
2022-10-18T06:34:47.244Z,24.20
2022-10-18T06:37:19.355Z,24.70
2022-10-18T06:39:51.622Z,23.60
2022-10-18T06:42:23.786Z,26.10
2022-10-18T06:44:55.933Z,23.90
2022-10-18T06:47:28.129Z,24.50
2022-10-18T06:50:00.306Z,24.60
2022-10-18T06:52:32.801Z,24.20
2022-10-18T06:55:09.186Z,24.80
2022-10-18T06:57:41.473Z,24.40
2022-10-18T07:00:15.899Z,24.90
2022-10-18T07:02:48.026Z,26.00
2022-10-18T07:05:20.442Z,23.90
2022-10-18T07:07:55.672Z,24.20
2022-10-18T07:10:28.634Z,23.40
2022-10-18T07:13:19.921Z,23.50
2022-10-18T07:16:03.296Z,23.50
2022-10-18T07:18:36.041Z,23.90
2022-10-18T07:21:10.977Z,23.10
2022-10-18T07:23:44.557Z,21.10
2022-10-18T07:26:18.257Z,22.20
2022-10-18T07:28:54.324Z,22.60
2022-10-18T07:31:27.161Z,22.00
2022-10-18T07:33:59.688Z,22.40
2022-10-18T07:36:31.784Z,21.50
2022-10-18T07:39:03.869Z,21.50
2022-10-18T07:41:36.404Z,22.70
2022-10-18T07:44:09.192Z,22.40
2022-10-18T07:46:41.312Z,21.30
2022-10-18T07:49:13.518Z,19.90
2022-10-18T07:51:45.554Z,19.80
2022-10-18T07:54:17.888Z,22.30
2022-10-18T07:56:49.949Z,20.60
2022-10-18T07:59:22.137Z,21.30
2022-10-18T08:01:54.382Z,22.60
2022-10-18T08:04:26.590Z,20.50
2022-10-18T08:06:58.882Z,21.80
2022-10-18T08:09:31.229Z,20.80
2022-10-18T08:12:03.320Z,21.70
2022-10-18T08:14:35.383Z,22.10
2022-10-18T08:17:07.461Z,22.80
2022-10-18T08:19:48.243Z,22.50
2022-10-18T08:22:30.718Z,20.40
2022-10-18T08:25:02.865Z,21.60
2022-10-18T08:27:35.365Z,22.30
2022-10-18T08:30:09.682Z,22.00
2022-10-18T08:32:41.783Z,22.00
2022-10-18T08:35:13.890Z,21.90
2022-10-18T08:37:46.389Z,21.50
2022-10-18T08:40:18.779Z,20.60
2022-10-18T08:43:07.225Z,22.60
2022-10-18T08:45:43.140Z,20.40
2022-10-18T08:48:25.013Z,21.20
2022-10-18T08:50:58.481Z,21.10
2022-10-18T08:53:36.196Z,19.50
2022-10-18T08:56:15.719Z,21.30
2022-10-18T08:58:47.995Z,20.50
2022-10-18T09:01:29.617Z,21.30
2022-10-18T09:04:26.771Z,20.30
2022-10-18T09:07:14.066Z,20.10
2022-10-18T09:09:52.104Z,20.10
2022-10-18T09:12:43.777Z,19.70
2022-10-18T09:15:19.787Z,19.60
2022-10-18T09:18:05.894Z,19.50
2022-10-18T09:20:53.129Z,16.90
2022-10-18T09:23:28.978Z,17.70
2022-10-18T09:26:08.159Z,18.40
2022-10-18T09:28:46.562Z,17.10
2022-10-18T09:31:22.962Z,17.40
2022-10-18T09:33:57.432Z,14.10
2022-10-18T09:36:35.613Z,15.10
2022-10-18T09:39:14.974Z,13.50
2022-10-18T09:41:51.810Z,12.70
2022-10-18T09:44:25.973Z,11.70
2022-10-18T09:47:01.647Z,10.60
2022-10-18T09:49:38.303Z,10.10
2022-10-18T09:52:18.637Z,10.60
2022-10-18T09:54:55.553Z,10.10
2022-10-18T09:57:32.946Z,8.80
2022-10-18T10:00:07.062Z,8.20
2022-10-18T10:02:39.320Z,8.90
2022-10-18T10:05:15.503Z,8.80
2022-10-18T10:07:50.709Z,8.60
2022-10-18T10:10:25.481Z,8.20
2022-10-18T10:13:07.785Z,7.80
2022-10-18T10:15:42.569Z,7.90
2022-10-18T10:18:22.447Z,8.80
2022-10-18T10:20:56.077Z,8.60
2022-10-18T10:23:30.884Z,8.70
2022-10-18T10:26:05.476Z,8.30
2022-10-18T10:28:46.545Z,7.90
2022-10-18T10:31:29.939Z,7.70
2022-10-18T10:34:04.322Z,6.40
2022-10-18T10:36:36.840Z,7.40
2022-10-18T10:39:12.470Z,9.20
2022-10-18T10:41:44.649Z,9.70
2022-10-18T10:46:51.553Z,7.10
2022-10-18T10:49:41.621Z,8.20
2022-10-18T10:52:28.562Z,7.00
2022-10-18T10:55:17.018Z,7.50
2022-10-18T10:57:55.642Z,8.80
2022-10-18T11:00:43.017Z,6.90
2022-10-18T11:03:28.568Z,7.00
2022-10-18T11:06:02.475Z,7.00
2022-10-18T11:08:37.993Z,6.50
2022-10-18T11:11:20.722Z,6.50
2022-10-18T11:14:21.012Z,6.70
2022-10-18T11:16:58.351Z,6.90
2022-10-18T11:19:38.127Z,6.00
2022-10-18T11:22:15.333Z,6.70
2022-10-18T11:24:47.547Z,7.40
2022-10-18T11:27:24.101Z,6.10
2022-10-18T11:30:07.888Z,6.60
2022-10-18T11:32:45.644Z,6.60
2022-10-18T11:35:34.538Z,7.20
2022-10-18T11:38:18.347Z,6.90
2022-10-18T11:41:01.070Z,7.40
2022-10-18T11:44:00.636Z,5.90
2022-10-18T11:46:41.280Z,6.40
2022-10-18T11:49:27.758Z,6.20
2022-10-18T11:52:09.359Z,6.00
2022-10-18T11:55:11.193Z,6.90
2022-10-18T11:57:48.613Z,5.90
2022-10-18T12:00:30.507Z,6.00
2022-10-18T12:03:19.956Z,6.30
2022-10-18T12:05:54.192Z,6.20
2022-10-18T12:08:30.531Z,6.10
2022-10-18T12:11:07.754Z,6.40
2022-10-18T12:13:45.264Z,7.20
2022-10-18T12:16:18.184Z,6.80
2022-10-18T12:18:55.681Z,6.80
2022-10-18T12:21:30.357Z,7.20
2022-10-18T12:24:06.537Z,6.30
2022-10-18T12:26:39.049Z,7.00
2022-10-18T12:29:18.545Z,7.00
2022-10-18T12:31:53.800Z,7.30
2022-10-18T12:34:33.647Z,7.00
2022-10-18T12:37:32.339Z,6.50
2022-10-18T12:40:14.246Z,6.40
2022-10-18T12:42:49.957Z,5.90
2022-10-18T12:45:33.576Z,6.60
2022-10-18T12:48:08.373Z,6.10
2022-10-18T12:50:41.766Z,7.10
2022-10-18T12:53:22.799Z,6.90
2022-10-18T12:55:55.911Z,6.20
2022-10-18T12:58:33.565Z,6.20
2022-10-18T13:01:08.046Z,6.40
2022-10-18T13:03:56.292Z,5.90
2022-10-18T13:06:28.783Z,6.30
2022-10-18T13:09:24.755Z,6.30
2022-10-18T13:12:01.938Z,6.30
2022-10-18T13:15:20.639Z,6.30
2022-10-18T13:17:55.194Z,6.20
2022-10-18T13:20:32.034Z,6.30
2022-10-18T13:23:12.031Z,6.30
2022-10-18T13:25:55.692Z,5.90
2022-10-18T13:28:35.936Z,6.50
2022-10-18T13:31:16.083Z,9.40
2022-10-18T13:33:48.354Z,7.00
2022-10-18T13:36:29.537Z,7.10
2022-10-18T13:39:17.510Z,7.10
2022-10-18T13:42:29.707Z,6.10
2022-10-18T13:45:32.752Z,5.80
2022-10-18T13:48:35.573Z,5.50
2022-10-18T13:51:24.158Z,6.50
2022-10-18T13:54:02.155Z,6.20
2022-10-18T13:56:55.372Z,6.20
2022-10-18T13:59:47.277Z,5.90
2022-10-18T14:02:51.159Z,5.70
2022-10-18T14:05:30.747Z,4.80
2022-10-18T14:08:10.353Z,5.30
2022-10-18T14:11:01.390Z,5.00
2022-10-18T14:13:40.321Z,4.70
2022-10-18T14:16:22.834Z,4.80
2022-10-18T14:18:56.708Z,5.30
2022-10-18T14:21:33.734Z,4.80
2022-10-18T14:24:07.781Z,5.20
2022-10-18T14:29:21.628Z,5.00
2022-10-18T14:31:58.142Z,5.20
2022-10-18T14:34:30.931Z,5.40
2022-10-18T14:37:03.095Z,5.40
2022-10-18T14:39:35.262Z,5.40
2022-10-18T14:42:19.372Z,5.60
2022-10-18T14:44:54.427Z,5.00
2022-10-18T14:47:30.264Z,4.20
2022-10-18T14:50:02.543Z,4.50
2022-10-18T14:52:35.967Z,5.10
2022-10-18T14:55:13.926Z,4.90
2022-10-18T14:57:46.069Z,5.20
2022-10-18T15:00:25.608Z,4.70
2022-10-18T15:02:57.771Z,4.90
2022-10-18T15:05:32.235Z,5.10
2022-10-18T15:08:04.704Z,5.60
2022-10-18T15:10:38.175Z,5.40
2022-10-18T15:13:11.883Z,5.80
2022-10-18T15:15:44.708Z,5.40
2022-10-18T15:18:24.399Z,5.40
2022-10-18T15:21:24.176Z,5.40
2022-10-18T15:23:56.744Z,5.60
2022-10-18T15:26:30.907Z,5.50
2022-10-18T15:29:06.052Z,5.90
2022-10-18T15:31:40.337Z,5.90
2022-10-18T15:34:16.449Z,5.60
2022-10-18T15:36:48.947Z,5.50
2022-10-18T15:39:23.397Z,6.30
2022-10-18T15:41:56.657Z,5.50
2022-10-18T15:44:32.315Z,5.90
2022-10-18T15:47:21.474Z,5.60
2022-10-18T15:49:56.913Z,6.00
2022-10-18T15:52:42.913Z,6.40
2022-10-18T15:55:49.069Z,7.10
2022-10-18T15:58:24.260Z,6.30
2022-10-18T16:00:58.032Z,6.10
2022-10-18T16:03:32.766Z,5.60
2022-10-18T16:06:08.097Z,6.40
2022-10-18T16:08:43.616Z,6.00
2022-10-18T16:11:19.009Z,6.10
2022-10-18T16:13:52.179Z,6.90
2022-10-18T16:16:27.660Z,6.90
2022-10-18T16:19:00.453Z,7.00
2022-10-18T16:21:34.359Z,6.70
2022-10-18T16:24:07.667Z,6.80
2022-10-18T16:26:40.157Z,6.90
2022-10-18T16:31:44.304Z,7.40
2022-10-18T16:34:16.532Z,6.80
2022-10-18T16:36:48.792Z,7.70
2022-10-18T16:39:21.890Z,6.60
2022-10-18T16:41:54.169Z,6.90
2022-10-18T16:44:26.230Z,7.40
2022-10-18T16:46:58.341Z,7.90
2022-10-18T16:49:30.417Z,7.50
2022-10-18T16:52:02.626Z,9.10
2022-10-18T16:54:35.869Z,9.10
2022-10-18T16:57:08.051Z,9.00
2022-10-18T16:59:40.322Z,9.10
2022-10-18T17:02:13.329Z,9.80
2022-10-18T17:04:45.533Z,8.70
2022-10-18T17:07:22.642Z,8.10
2022-10-18T17:09:54.900Z,9.10
2022-10-18T17:12:27.029Z,9.30
2022-10-18T17:14:59.233Z,9.20
2022-10-18T17:17:31.669Z,10.70
2022-10-18T17:20:04.605Z,11.30
2022-10-18T17:22:36.744Z,9.40
2022-10-18T17:25:10.046Z,10.10
2022-10-18T17:27:42.136Z,10.40
2022-10-18T17:30:17.955Z,8.80
2022-10-18T17:32:50.108Z,10.00
2022-10-18T17:35:23.090Z,9.80
2022-10-18T17:37:55.503Z,9.80
2022-10-18T17:40:27.713Z,11.20
2022-10-18T17:43:00.447Z,10.40
2022-10-18T17:45:32.619Z,10.50
2022-10-18T17:48:05.068Z,9.70
2022-10-18T17:50:37.410Z,11.00
2022-10-18T17:55:41.608Z,10.10
2022-10-18T17:58:13.824Z,10.80
2022-10-18T18:00:45.995Z,10.20
2022-10-18T18:03:28.527Z,10.10
2022-10-18T18:06:01.394Z,11.60
2022-10-18T18:08:33.672Z,11.30
2022-10-18T18:11:06.043Z,11.40
2022-10-18T18:13:38.289Z,11.00
2022-10-18T18:16:16.216Z,12.90
2022-10-18T18:18:50.476Z,10.90
2022-10-18T18:21:23.267Z,11.70
2022-10-18T18:23:55.716Z,11.00
2022-10-18T18:26:28.284Z,12.80
2022-10-18T18:31:34.518Z,11.70
2022-10-18T18:34:11.808Z,11.90
2022-10-18T18:36:44.480Z,13.20
2022-10-18T18:41:52.963Z,11.80
2022-10-18T18:44:25.896Z,11.80
2022-10-18T18:46:58.857Z,12.00
2022-10-18T18:49:31.611Z,12.60
2022-10-18T18:52:04.034Z,12.20
2022-10-18T18:54:36.380Z,12.70
2022-10-18T18:57:08.600Z,11.50
2022-10-18T18:59:40.821Z,12.20
2022-10-18T19:02:13.945Z,11.70
2022-10-18T19:04:46.196Z,13.90
2022-10-18T19:07:18.443Z,13.00
2022-10-18T19:09:51.066Z,12.90
2022-10-18T19:14:55.006Z,12.90
2022-10-18T19:17:27.557Z,12.60
2022-10-18T19:20:01.277Z,12.50
2022-10-18T19:22:33.415Z,12.30
2022-10-18T19:25:05.965Z,12.70
2022-10-18T19:27:38.635Z,12.60
2022-10-18T19:30:12.814Z,14.10
2022-10-18T19:32:45.123Z,15.50
2022-10-18T19:35:17.497Z,15.70
2022-10-18T19:37:49.745Z,14.00
2022-10-18T19:40:21.926Z,12.20
2022-10-18T19:42:54.183Z,12.90
2022-10-18T19:45:26.380Z,12.90
2022-10-18T19:47:58.519Z,13.20
2022-10-18T19:50:31.838Z,13.70
2022-10-18T19:53:04.049Z,15.20
2022-10-18T19:55:38.456Z,15.40
2022-10-18T19:58:10.695Z,15.00
2022-10-18T20:00:42.903Z,15.10
2022-10-18T20:03:16.270Z,14.60
2022-10-18T20:05:48.473Z,13.80
2022-10-18T20:08:20.587Z,15.40
2022-10-18T20:10:52.955Z,14.30
2022-10-18T20:13:25.156Z,15.70
2022-10-18T20:15:57.472Z,15.50
2022-10-18T20:18:29.725Z,14.70
2022-10-18T20:21:02.102Z,14.80
2022-10-18T20:23:34.230Z,14.90
2022-10-18T20:26:08.632Z,15.40
2022-10-18T20:28:42.026Z,16.00
2022-10-18T20:31:17.067Z,16.20
2022-10-18T20:33:54.285Z,16.00
2022-10-18T20:36:27.299Z,15.20
2022-10-18T20:38:59.620Z,14.20
2022-10-18T20:41:33.849Z,10.40
2022-10-18T20:44:08.525Z,14.80
2022-10-18T20:46:41.140Z,15.60
2022-10-18T20:51:44.389Z,15.00
2022-10-18T20:54:16.513Z,15.30
2022-10-18T20:56:48.635Z,16.30
2022-10-18T20:59:20.726Z,16.00
2022-10-18T21:01:52.825Z,16.20
2022-10-18T21:04:25.047Z,16.80
2022-10-18T21:06:57.073Z,16.30
2022-10-18T21:09:29.171Z,17.40
2022-10-18T21:12:01.297Z,21.70
2022-10-18T21:14:33.759Z,24.00
2022-10-18T21:17:05.827Z,25.80
2022-10-18T21:19:38.180Z,28.80
2022-10-18T21:22:10.215Z,29.10
2022-10-18T21:24:42.672Z,30.40
2022-10-18T21:27:16.933Z,27.60
2022-10-18T21:29:49.544Z,27.40
2022-10-18T21:34:52.078Z,24.90
2022-10-18T21:37:24.174Z,26.00
2022-10-18T21:39:56.330Z,25.40
2022-10-18T21:42:28.440Z,26.80
2022-10-18T21:45:00.527Z,26.60
2022-10-18T21:47:32.629Z,25.70
2022-10-18T21:50:04.921Z,26.40
2022-10-18T21:52:37.029Z,25.30
2022-10-18T21:55:10.533Z,26.10
2022-10-18T21:57:42.836Z,26.60
2022-10-18T22:00:18.775Z,26.30
2022-10-18T22:02:50.827Z,25.90
2022-10-18T22:05:23.134Z,25.70
2022-10-18T22:07:55.232Z,25.70
2022-10-18T22:10:27.295Z,25.70
2022-10-18T22:12:59.719Z,24.50
2022-10-18T22:15:31.850Z,24.40
2022-10-18T22:18:03.968Z,24.60
2022-10-18T22:20:36.086Z,24.70
2022-10-18T22:23:08.258Z,24.30
2022-10-18T22:25:40.342Z,24.80
2022-10-18T22:28:12.485Z,24.70
2022-10-18T22:30:44.729Z,22.30
2022-10-18T22:33:16.829Z,24.50
2022-10-18T22:35:52.954Z,24.40
2022-10-18T22:38:25.064Z,23.00
2022-10-18T22:40:57.186Z,24.10
2022-10-18T22:43:31.862Z,22.90
2022-10-18T22:46:04.786Z,23.60
2022-10-18T22:48:37.427Z,23.60
2022-10-18T22:53:41.091Z,22.40
2022-10-18T22:56:16.778Z,21.90
2022-10-18T22:58:49.489Z,23.60
2022-10-18T23:01:23.468Z,21.90
2022-10-18T23:03:59.395Z,23.70
2022-10-18T23:06:32.963Z,22.30
2022-10-18T23:09:07.859Z,21.40
2022-10-18T23:11:40.356Z,22.50
2022-10-18T23:14:13.315Z,23.40
2022-10-18T23:16:45.865Z,21.50
2022-10-18T23:19:19.120Z,21.70
2022-10-18T23:21:51.257Z,20.90
2022-10-18T23:24:23.335Z,20.90
2022-10-18T23:26:55.572Z,21.90
2022-10-18T23:29:27.789Z,21.10
2022-10-18T23:31:59.900Z,20.20
2022-10-18T23:34:31.998Z,20.80
2022-10-18T23:37:04.118Z,21.80
2022-10-18T23:39:36.205Z,21.50
2022-10-18T23:42:08.805Z,20.40
2022-10-18T23:44:40.909Z,20.60
2022-10-18T23:47:12.993Z,19.30
2022-10-18T23:49:45.558Z,19.40
2022-10-18T23:52:17.681Z,20.00
2022-10-18T23:54:50.230Z,18.70
2022-10-18T23:57:22.365Z,18.80
2022-10-18T23:59:54.501Z,16.50
